Time;durP1;ratioP1;P1;durP2;ratioP2;P2;SDS_P1;SDS_P2;PMS_P1;PMS_P2;Temp;Humidity;BMP_temperature;BMP_pressure;BME280_temperature;BME280_humidity;BME280_pressure;Samples;Min_cycle;Max_cycle;Signal;HPM_P1;HPM_P2
2021/03/09 07:48:30;;;;;;;56.97;26.80;;;1.90;99.90;;;;;;5109724;27;20396;-75
2021/03/09 07:51:03;;;;;;;87.72;31.42;;;1.70;99.90;;;;;;5097189;28;20030;-75
2021/03/09 07:53:29;;;;;;;71.00;31.77;;;1.90;99.90;;;;;;5109389;28;20016;-75
2021/03/09 07:56:12;;;;;;;49.50;27.55;;;2.00;99.90;;;;;;5108274;28;20479;-75
2021/03/09 07:58:39;;;;;;;53.50;28.48;;;2.20;99.90;;;;;;5103871;28;20107;-75
2021/03/09 08:01:06;;;;;;;44.70;25.95;;;2.40;99.90;;;;;;5108085;28;20084;-75
2021/03/09 08:03:37;;;;;;;49.30;25.27;;;2.70;99.90;;;;;;5108648;28;20073;-75
2021/03/09 08:06:14;;;;;;;50.00;25.10;;;2.50;99.90;;;;;;5108009;28;20015;-75
2021/03/09 08:08:49;;;;;;;74.75;27.77;;;2.30;99.90;;;;;;5105147;28;20020;-75
2021/03/09 08:11:23;;;;;;;85.72;29.88;;;2.40;99.90;;;;;;5108005;28;20016;-74
2021/03/09 08:14:04;;;;;;;67.13;27.77;;;2.50;99.90;;;;;;5104006;28;20023;-74
2021/03/09 08:16:33;;;;;;;83.72;30.70;;;2.80;99.90;;;;;;5100300;28;20027;-74
2021/03/09 08:19:05;;;;;;;69.20;27.60;;;2.90;99.90;;;;;;5107380;28;20034;-74
2021/03/09 08:21:47;;;;;;;60.97;26.75;;;3.00;99.90;;;;;;5103476;28;20035;-74
2021/03/09 08:24:13;;;;;;;71.88;27.80;;;3.10;98.90;;;;;;5099569;28;20031;-75
2021/03/09 08:26:39;;;;;;;72.47;27.90;;;2.90;99.60;;;;;;5107937;28;20024;-74
2021/03/09 08:29:29;;;;;;;42.78;26.10;;;3.10;99.90;;;;;;5084189;28;20385;-75
2021/03/09 08:32:23;;;;;;;67.00;27.27;;;3.30;98.30;;;;;;5103611;28;20023;-75
2021/03/09 08:34:49;;;;;;;54.92;24.90;;;3.50;97.70;;;;;;5085067;28;20098;-75
2021/03/09 08:37:32;;;;;;;42.58;24.83;;;3.60;97.30;;;;;;5107916;28;20387;-75
2021/03/09 08:40:05;;;;;;;52.25;25.98;;;3.70;95.00;;;;;;5107145;28;20043;-75
2021/03/09 08:43:00;;;;;;;60.03;27.35;;;3.90;95.30;;;;;;5093390;28;20031;-75
2021/03/09 08:45:42;;;;;;;48.28;23.45;;;4.00;94.60;;;;;;5103562;28;20118;-74
2021/03/09 08:48:09;;;;;;;45.58;25.23;;;4.20;93.10;;;;;;5100903;28;20043;-75
2021/03/09 08:50:46;;;;;;;86.13;29.30;;;4.00;92.00;;;;;;5084806;28;20545;-74
2021/03/09 08:53:31;;;;;;;47.97;24.65;;;4.10;93.40;;;;;;5107644;28;20027;-74
2021/03/09 08:56:05;;;;;;;52.83;24.85;;;4.00;92.40;;;;;;5094373;28;20074;-74
2021/03/09 08:58:32;;;;;;;48.65;23.50;;;3.90;93.30;;;;;;5093128;28;20024;-74
2021/03/09 09:01:00;;;;;;;41.97;19.88;;;4.20;93.40;;;;;;5093739;28;20391;-74
2021/03/09 09:03:32;;;;;;;71.82;24.13;;;4.50;91.10;;;;;;5083488;28;20533;-74
2021/03/09 09:05:59;;;;;;;60.75;24.08;;;4.60;91.10;;;;;;5093760;28;20024;-75
2021/03/09 09:08:24;;;;;;;57.60;23.60;;;4.90;90.60;;;;;;5093183;28;20020;-74
2021/03/09 09:10:50;;;;;;;84.55;26.15;;;4.80;90.30;;;;;;5075059;28;20472;-75
2021/03/09 09:13:16;;;;;;;37.17;22.25;;;5.00;90.10;;;;;;5086857;28;20380;-74
2021/03/09 09:15:42;;;;;;;54.83;24.15;;;4.80;87.90;;;;;;5093578;28;20020;-75
2021/03/09 09:18:09;;;;;;;48.28;23.98;;;5.10;88.10;;;;;;5093518;28;20432;-75
2021/03/09 09:20:43;;;;;;;66.15;22.35;;;5.20;88.60;;;;;;5093699;28;20467;-74
2021/03/09 09:23:15;;;;;;;84.38;25.83;;;5.40;88.20;;;;;;5092922;28;20031;-74
2021/03/09 09:25:43;;;;;;;68.60;23.42;;;5.50;87.00;;;;;;5092777;28;20035;-74
2021/03/09 09:28:20;;;;;;;41.58;23.58;;;5.90;86.50;;;;;;5093363;28;20543;-74
2021/03/09 09:30:47;;;;;;;45.05;22.25;;;6.30;82.80;;;;;;5092839;28;20329;-74
2021/03/09 09:33:13;;;;;;;37.13;21.40;;;6.20;81.10;;;;;;5093349;28;20084;-75
2021/03/09 09:35:40;;;;;;;42.70;21.35;;;6.40;80.70;;;;;;5092594;28;20028;-74
2021/03/09 09:38:14;;;;;;;36.83;22.63;;;6.40;78.80;;;;;;5093242;28;20587;-74
2021/03/09 09:40:48;;;;;;;34.83;21.73;;;6.40;78.00;;;;;;5093135;28;20103;-74
2021/03/09 09:43:19;;;;;;;87.50;24.80;;;6.80;77.70;;;;;;5092772;28;20107;-74
2021/03/09 09:45:50;;;;;;;33.80;21.30;;;7.30;75.90;;;;;;5086558;28;20115;-75
2021/03/09 09:48:19;;;;;;;30.65;19.10;;;7.50;73.90;;;;;;5092011;28;20082;-75
2021/03/09 09:50:50;;;;;;;33.25;20.65;;;8.00;69.40;;;;;;5092837;28;20028;-74
2021/03/09 09:53:42;;;;;;;31.77;17.85;;;7.90;70.30;;;;;;5092240;28;20055;-74
2021/03/09 09:56:13;;;;;;;31.10;17.33;;;8.40;65.60;;;;;;5089982;28;20024;-74
2021/03/09 09:58:46;;;;;;;34.70;17.10;;;8.70;62.80;;;;;;5092642;28;20020;-74
2021/03/09 10:01:15;;;;;;;28.38;16.55;;;9.10;60.00;;;;;;5093054;28;20451;-74
2021/03/09 10:03:54;;;;;;;29.98;16.30;;;8.80;61.10;;;;;;5093044;28;20092;-74
2021/03/09 10:06:23;;;;;;;21.58;15.15;;;8.80;59.10;;;;;;5091981;28;20028;-74
2021/03/09 10:08:49;;;;;;;37.10;18.25;;;9.20;59.30;;;;;;5077263;28;20024;-74
2021/03/09 10:11:15;;;;;;;44.05;18.15;;;9.20;59.20;;;;;;5091045;28;20527;-74
2021/03/09 10:13:41;;;;;;;23.60;14.93;;;9.80;57.80;;;;;;5079194;28;20110;-74
2021/03/09 10:16:06;;;;;;;20.88;14.18;;;10.10;56.30;;;;;;5091657;28;20069;-75
2021/03/09 10:18:34;;;;;;;48.22;16.98;;;10.30;55.50;;;;;;5084624;28;20016;-74
2021/03/09 10:21:10;;;;;;;24.80;15.55;;;10.60;55.10;;;;;;5091558;28;20035;-75
2021/03/09 10:23:56;;;;;;;31.52;18.10;;;11.00;53.90;;;;;;5092129;28;20024;-75
2021/03/09 10:26:26;;;;;;;26.77;17.83;;;11.00;55.20;;;;;;5069918;28;20042;-75
2021/03/09 10:29:07;;;;;;;26.73;17.08;;;10.70;54.50;;;;;;5092028;28;20042;-74
2021/03/09 10:31:55;;;;;;;25.83;17.85;;;10.70;55.10;;;;;;5085816;28;20472;-75
2021/03/09 10:34:37;;;;;;;24.77;16.80;;;10.60;55.00;;;;;;5085330;28;20024;-75
2021/03/09 10:37:03;;;;;;;;;;;10.90;54.40;;;;;;5089839;28;20032;-74
2021/03/09 10:39:32;;;;;;;30.35;16.50;;;10.40;54.20;;;;;;5092260;28;19903;-75
2021/03/09 10:42:18;;;;;;;26.10;17.73;;;10.70;54.80;;;;;;5089396;28;20032;-75
2021/03/09 10:44:44;;;;;;;27.30;17.77;;;10.90;55.10;;;;;;5089021;28;20483;-75
2021/03/09 10:47:12;;;;;;;24.63;15.85;;;11.20;53.60;;;;;;5091584;28;20062;-75
2021/03/09 10:49:38;;;;;;;31.60;17.00;;;11.60;52.80;;;;;;5091369;28;20023;-75
2021/03/09 10:52:06;;;;;;;22.60;16.63;;;11.60;52.30;;;;;;5092274;28;20464;-75
2021/03/09 10:54:33;;;;;;;24.67;16.73;;;12.00;51.50;;;;;;5091112;28;20130;-75
2021/03/09 10:56:59;;;;;;;25.88;16.67;;;12.40;51.70;;;;;;5091621;28;20384;-76
2021/03/09 10:59:25;;;;;;;26.13;16.73;;;12.40;50.90;;;;;;5081018;28;20031;-74
2021/03/09 11:01:51;;;;;;;29.73;16.55;;;12.10;49.80;;;;;;5091231;28;20031;-76
2021/03/09 11:04:18;;;;;;;32.75;17.35;;;11.90;50.20;;;;;;5087012;28;20449;-75
2021/03/09 11:06:44;;;;;;;20.55;15.25;;;11.30;51.50;;;;;;5084700;28;20028;-76
2021/03/09 11:09:09;;;;;;;22.67;16.35;;;11.30;51.50;;;;;;5080445;28;20020;-74
2021/03/09 11:11:35;;;;;;;25.30;15.13;;;11.70;51.50;;;;;;5088895;28;20085;-75
2021/03/09 11:14:01;;;;;;;23.40;16.88;;;12.30;49.90;;;;;;5089371;28;20024;-75
2021/03/09 11:16:30;;;;;;;31.17;16.90;;;12.60;47.90;;;;;;5089278;28;20023;-75
2021/03/09 11:18:56;;;;;;;26.58;16.83;;;12.90;47.60;;;;;;5084517;28;20046;-75
2021/03/09 11:21:22;;;;;;;27.58;16.75;;;12.40;48.40;;;;;;5071142;28;20455;-75
2021/03/09 11:23:51;;;;;;;28.27;16.98;;;12.80;49.20;;;;;;5088769;28;20059;-75
2021/03/09 11:26:20;;;;;;;23.45;16.55;;;12.90;47.60;;;;;;5091634;28;20058;-75
2021/03/09 11:28:46;;;;;;;24.67;15.88;;;12.90;47.60;;;;;;5094653;28;20012;-75
2021/03/09 11:31:14;;;;;;;22.60;15.35;;;13.30;46.50;;;;;;5091075;28;20476;-75
2021/03/09 11:33:40;;;;;;;21.13;15.90;;;13.60;45.60;;;;;;5091079;28;20450;-75
2021/03/09 11:36:06;;;;;;;28.00;15.45;;;13.60;44.80;;;;;;5090512;28;20035;-74
2021/03/09 11:38:32;;;;;;;25.98;16.85;;;13.00;46.10;;;;;;5077862;28;20028;-75
2021/03/09 11:40:58;;;;;;;37.60;17.30;;;13.10;46.00;;;;;;5090590;28;20221;-75
2021/03/09 11:43:24;;;;;;;29.58;15.88;;;12.90;46.20;;;;;;5093649;28;20028;-75
2021/03/09 11:45:50;;;;;;;29.20;16.77;;;13.00;46.10;;;;;;5090181;28;20024;-75
2021/03/09 11:48:16;;;;;;;35.13;17.45;;;11.80;47.80;;;;;;5075617;28;20044;-75
2021/03/09 11:50:42;;;;;;;35.40;16.85;;;11.30;49.20;;;;;;5090683;28;20043;-75
2021/03/09 11:53:07;;;;;;;33.88;17.73;;;11.40;50.10;;;;;;5083842;28;20444;-75
2021/03/09 11:55:33;;;;;;;37.85;17.30;;;11.00;50.10;;;;;;5079675;28;20076;-75
2021/03/09 11:57:59;;;;;;;27.55;17.38;;;10.50;51.60;;;;;;5089998;28;20036;-74
2021/03/09 12:00:25;;;;;;;30.25;16.85;;;10.10;51.50;;;;;;5090674;28;20030;-75
2021/03/09 12:02:51;;;;;;;58.15;25.38;;;9.50;52.30;;;;;;5089943;28;20032;-74
2021/03/09 12:05:16;;;;;;;23.88;15.35;;;9.50;54.70;;;;;;5081486;28;20059;-73
2021/03/09 12:07:42;;;;;;;23.80;16.92;;;9.70;52.90;;;;;;5090485;28;20028;-73
2021/03/09 12:10:08;;;;;;;26.08;17.17;;;9.80;52.30;;;;;;5090062;28;20110;-73
2021/03/09 12:12:34;;;;;;;27.30;17.83;;;9.80;52.90;;;;;;5081877;28;20369;-74
2021/03/09 12:15:00;;;;;;;31.85;16.83;;;9.80;52.20;;;;;;5090186;28;20024;-75
2021/03/09 12:17:26;;;;;;;27.45;18.40;;;9.80;53.20;;;;;;5077470;28;20028;-75
2021/03/09 12:19:52;;;;;;;27.35;16.65;;;9.40;53.00;;;;;;5090167;28;20032;-75
2021/03/09 12:22:18;;;;;;;27.13;17.00;;;9.20;54.00;;;;;;5090630;28;20059;-74
2021/03/09 12:24:43;;;;;;;27.70;15.10;;;9.30;53.70;;;;;;5090376;28;20052;-74
2021/03/09 12:27:09;;;;;;;34.42;16.33;;;9.60;52.80;;;;;;5090395;28;20032;-75
2021/03/09 12:29:35;;;;;;;23.17;15.98;;;10.00;52.70;;;;;;5090681;28;20099;-74
2021/03/09 12:32:01;;;;;;;20.33;15.48;;;10.20;51.10;;;;;;5078723;28;20012;-75
2021/03/09 12:34:26;;;;;;;25.02;15.88;;;10.20;50.20;;;;;;5077957;28;20024;-75
2021/03/09 12:36:52;;;;;;;24.65;15.68;;;10.20;51.00;;;;;;5093943;28;20072;-75
2021/03/09 12:39:18;;;;;;;21.85;15.40;;;10.30;50.70;;;;;;5094207;28;20471;-75
2021/03/09 12:41:44;;;;;;;30.25;17.20;;;10.50;50.30;;;;;;5093832;28;20035;-75
2021/03/09 12:44:10;;;;;;;23.98;15.40;;;10.00;51.30;;;;;;5094003;28;20357;-74
2021/03/09 12:46:35;;;;;;;24.83;17.60;;;9.70;52.40;;;;;;5094117;28;20062;-75
2021/03/09 12:49:01;;;;;;;25.20;16.05;;;9.50;54.30;;;;;;5093449;28;20031;-75
2021/03/09 12:51:27;;;;;;;32.95;16.17;;;9.70;53.90;;;;;;5094062;28;20032;-75
2021/03/09 12:53:53;;;;;;;36.63;18.08;;;9.80;53.30;;;;;;5081316;28;20077;-75
2021/03/09 12:56:20;;;;;;;27.65;16.73;;;9.40;53.70;;;;;;5095682;28;20058;-75
2021/03/09 12:58:46;;;;;;;24.90;16.23;;;9.70;53.80;;;;;;5094413;28;20504;-74
2021/03/09 13:01:12;;;;;;;43.17;17.13;;;10.10;52.50;;;;;;5094271;28;20027;-76
2021/03/09 13:03:38;;;;;;;26.50;16.70;;;9.80;52.60;;;;;;5084359;28;20024;-74
2021/03/09 13:06:04;;;;;;;27.63;17.23;;;10.10;53.10;;;;;;5087177;28;20044;-75
2021/03/09 13:08:29;;;;;;;30.70;17.83;;;10.20;52.10;;;;;;5093675;28;20032;-75
2021/03/09 13:10:55;;;;;;;34.50;15.50;;;10.00;51.70;;;;;;5093157;28;20020;-75
2021/03/09 13:13:21;;;;;;;79.57;19.58;;;9.90;52.00;;;;;;5086946;28;20024;-75
2021/03/09 13:15:48;;;;;;;21.92;15.57;;;9.70;51.60;;;;;;5093112;28;20027;-75
2021/03/09 13:18:14;;;;;;;22.27;14.95;;;9.70;51.90;;;;;;5093753;28;20077;-75
2021/03/09 13:20:40;;;;;;;25.75;15.65;;;9.40;51.50;;;;;;5093532;28;20788;-75
2021/03/09 13:23:05;;;;;;;28.92;15.93;;;9.40;52.90;;;;;;5093094;28;20387;-74
2021/03/09 13:25:31;;;;;;;24.90;16.48;;;9.50;53.20;;;;;;5093785;28;20562;-74
2021/03/09 13:27:57;;;;;;;26.88;15.52;;;9.50;51.50;;;;;;5090917;28;20115;-74
2021/03/09 13:30:23;;;;;;;38.92;17.58;;;9.50;52.40;;;;;;5093342;28;20024;-75
2021/03/09 13:32:49;;;;;;;22.27;15.07;;;9.30;52.10;;;;;;5092922;28;20073;-75
2021/03/09 13:35:16;;;;;;;30.83;16.38;;;9.20;52.40;;;;;;5083897;28;20032;-75
2021/03/09 13:37:42;;;;;;;23.85;15.60;;;9.20;52.00;;;;;;5087040;28;20479;-77
2021/03/09 13:40:10;;;;;;;30.83;15.55;;;9.40;53.10;;;;;;5092389;28;20111;-75
2021/03/09 13:42:36;;;;;;;22.83;15.65;;;9.40;53.00;;;;;;5081345;28;20020;-74
2021/03/09 13:45:04;;;;;;;22.15;15.40;;;9.20;52.80;;;;;;5091680;28;20027;-74
2021/03/09 13:47:30;;;;;;;23.73;15.57;;;8.90;53.60;;;;;;5092606;28;20043;-75
2021/03/09 13:49:55;;;;;;;28.65;15.50;;;8.80;53.70;;;;;;5092570;28;20380;-74
2021/03/09 13:52:21;;;;;;;25.05;15.32;;;8.90;54.20;;;;;;5093051;28;20395;-75
2021/03/09 13:54:47;;;;;;;23.40;15.50;;;9.10;53.70;;;;;;5092532;28;20073;-75
2021/03/09 13:57:12;;;;;;;24.20;15.00;;;8.90;54.30;;;;;;5092164;28;20483;-74
2021/03/09 13:59:38;;;;;;;34.95;16.80;;;8.90;54.80;;;;;;5092725;28;20032;-75
2021/03/09 14:02:04;;;;;;;27.58;17.27;;;9.00;54.90;;;;;;5082448;28;20653;-75
2021/03/09 14:04:29;;;;;;;29.52;15.95;;;9.10;54.60;;;;;;5092904;28;20036;-76
2021/03/09 14:06:55;;;;;;;35.40;17.58;;;9.00;53.80;;;;;;5092168;28;20393;-75
2021/03/09 14:09:21;;;;;;;26.13;15.60;;;8.90;53.50;;;;;;5092973;28;20023;-76
2021/03/09 14:11:47;;;;;;;35.42;18.27;;;8.90;54.10;;;;;;5083232;28;20021;-76
2021/03/09 14:14:13;;;;;;;29.50;15.77;;;8.80;54.30;;;;;;5060810;28;20026;-75
2021/03/09 14:16:39;;;;;;;29.27;16.38;;;8.70;54.20;;;;;;5092643;28;20036;-78
2021/03/09 14:19:06;;;;;;;27.17;16.27;;;8.70;55.20;;;;;;5091926;28;20039;-74
2021/03/09 14:21:33;;;;;;;29.88;16.80;;;8.70;54.50;;;;;;5092279;28;20028;-75
2021/03/09 14:23:58;;;;;;;37.05;16.63;;;8.80;54.40;;;;;;5091981;28;20028;-74
2021/03/09 14:26:24;;;;;;;29.33;15.80;;;8.90;54.20;;;;;;5092078;28;20116;-75
2021/03/09 14:28:50;;;;;;;82.35;19.02;;;8.90;54.20;;;;;;5091651;28;20022;-75
2021/03/09 14:31:16;;;;;;;39.05;19.40;;;8.80;53.90;;;;;;5091836;28;20020;-75
2021/03/09 14:33:42;;;;;;;29.63;15.93;;;8.80;54.60;;;;;;5091945;28;20020;-74
2021/03/09 14:36:08;;;;;;;40.25;18.92;;;8.70;54.70;;;;;;5091208;28;20039;-75
2021/03/09 14:38:34;;;;;;;35.13;16.33;;;8.50;54.70;;;;;;5091646;28;20024;-76
2021/03/09 14:40:59;;;;;;;34.95;16.67;;;8.60;55.10;;;;;;5091514;28;20028;-75
2021/03/09 14:43:25;;;;;;;38.55;17.75;;;8.80;54.90;;;;;;5091942;28;20293;-75
2021/03/09 14:45:51;;;;;;;34.50;17.80;;;8.80;54.70;;;;;;5091500;28;20031;-75
2021/03/09 14:48:17;;;;;;;37.38;18.92;;;8.80;55.00;;;;;;5065297;28;20059;-75
2021/03/09 14:50:42;;;;;;;35.80;18.23;;;9.00;54.40;;;;;;5091643;28;20024;-75
2021/03/09 14:53:08;;;;;;;27.63;16.65;;;9.00;54.50;;;;;;5091117;28;20061;-74
2021/03/09 14:55:34;;;;;;;30.13;16.52;;;8.80;54.00;;;;;;5078813;28;20093;-75
2021/03/09 14:58:00;;;;;;;21.73;14.80;;;8.70;54.80;;;;;;5089412;28;20027;-77
2021/03/09 15:00:27;;;;;;;26.42;17.27;;;8.60;53.60;;;;;;5067078;28;20025;-76
2021/03/09 15:02:53;;;;;;;34.42;15.45;;;8.50;54.50;;;;;;5090561;28;20482;-76
2021/03/09 15:05:20;;;;;;;25.73;15.02;;;8.50;53.90;;;;;;5082235;28;20024;-76
2021/03/09 15:07:46;;;;;;;28.70;16.42;;;8.30;54.10;;;;;;5091357;28;20386;-75
2021/03/09 15:10:14;;;;;;;25.98;16.05;;;8.20;54.20;;;;;;5091015;28;20463;-76
2021/03/09 15:12:40;;;;;;;30.98;16.08;;;8.30;55.30;;;;;;5091372;28;20020;-75
2021/03/09 15:15:07;;;;;;;31.58;16.00;;;8.30;54.60;;;;;;5090437;28;20421;-75
2021/03/09 15:17:33;;;;;;;28.42;17.17;;;8.30;54.90;;;;;;5090201;28;20460;-75
2021/03/09 15:19:59;;;;;;;24.73;15.93;;;8.20;54.50;;;;;;5090485;28;20117;-75
2021/03/09 15:22:25;;;;;;;38.88;18.10;;;8.00;55.10;;;;;;5090932;28;20107;-75
2021/03/09 15:24:51;;;;;;;39.28;17.15;;;8.20;55.20;;;;;;5090596;28;20501;-75
2021/03/09 15:27:17;;;;;;;27.48;16.25;;;8.20;54.20;;;;;;5082995;28;20110;-75
2021/03/09 15:29:43;;;;;;;44.08;17.70;;;8.20;53.80;;;;;;5090930;28;20099;-75
2021/03/09 15:32:09;;;;;;;30.70;15.95;;;8.10;54.30;;;;;;5090711;28;20073;-75
2021/03/09 15:34:35;;;;;;;30.80;16.38;;;8.10;54.80;;;;;;5091233;28;20028;-75
2021/03/09 15:37:01;;;;;;;24.92;15.63;;;8.20;54.30;;;;;;5090882;28;20024;-75
2021/03/09 15:39:27;;;;;;;29.10;16.90;;;8.10;55.20;;;;;;5075106;28;20031;-75
2021/03/09 15:41:53;;;;;;;41.60;17.40;;;8.00;55.80;;;;;;5079719;28;20043;-75
2021/03/09 15:44:19;;;;;;;30.92;16.75;;;8.10;55.70;;;;;;5078044;28;20024;-75
2021/03/09 15:46:45;;;;;;;23.90;16.38;;;8.00;55.60;;;;;;5081040;28;20024;-75
2021/03/09 15:49:10;;;;;;;38.03;18.63;;;7.90;55.70;;;;;;5090565;28;20028;-75
2021/03/09 15:51:36;;;;;;;35.42;17.50;;;7.90;56.10;;;;;;5090985;28;20039;-75
2021/03/09 15:54:02;;;;;;;31.23;17.15;;;7.80;56.00;;;;;;5090216;28;20031;-76
2021/03/09 15:56:28;;;;;;;36.83;17.13;;;7.80;56.10;;;;;;5090598;28;20097;-75
2021/03/09 15:58:54;;;;;;;33.67;17.58;;;7.70;56.10;;;;;;5090753;28;20059;-75
2021/03/09 16:01:20;;;;;;;38.17;18.42;;;7.60;56.50;;;;;;5089838;28;20051;-75
2021/03/09 16:03:45;;;;;;;28.23;17.20;;;7.60;57.20;;;;;;5076896;28;20036;-75
2021/03/09 16:06:12;;;;;;;37.58;17.15;;;7.50;57.10;;;;;;5090230;28;20027;-75
2021/03/09 16:08:37;;;;;;;32.90;19.67;;;7.50;57.40;;;;;;5091747;28;20027;-75
2021/03/09 16:11:03;;;;;;;35.13;19.27;;;7.60;57.80;;;;;;5094334;28;20466;-76
2021/03/09 16:13:29;;;;;;;49.22;21.83;;;7.60;57.90;;;;;;5094743;28;20022;-75
2021/03/09 16:15:54;;;;;;;28.83;18.05;;;7.40;57.70;;;;;;5084858;28;20024;-75
2021/03/09 16:18:20;;;;;;;38.55;18.90;;;7.30;58.00;;;;;;5094215;28;20021;-76
2021/03/09 16:20:46;;;;;;;26.90;17.35;;;7.40;57.90;;;;;;5079132;28;20118;-75
2021/03/09 16:23:12;;;;;;;36.88;16.70;;;7.40;58.00;;;;;;5094321;28;20024;-75
2021/03/09 16:25:38;;;;;;;34.70;26.85;;;7.40;58.00;;;;;;5093658;28;20016;-75
2021/03/09 16:28:04;;;;;;;47.58;18.23;;;7.30;58.30;;;;;;5087905;28;20122;-75
2021/03/09 16:30:30;;;;;;;34.50;16.83;;;7.40;58.20;;;;;;5094874;28;20048;-75
2021/03/09 16:32:56;;;;;;;23.33;14.23;;;7.40;57.70;;;;;;5084653;28;20120;-75
2021/03/09 16:35:22;;;;;;;27.95;16.13;;;7.40;57.70;;;;;;5094598;28;20016;-76
2021/03/09 16:37:48;;;;;;;26.23;15.30;;;7.50;57.20;;;;;;5094255;28;20024;-75
2021/03/09 16:40:15;;;;;;;32.65;16.95;;;7.20;57.30;;;;;;5093881;28;20020;-75
2021/03/09 16:42:41;;;;;;;30.70;17.02;;;7.20;57.70;;;;;;5083349;28;20031;-75
2021/03/09 16:45:15;;;;;;;29.27;14.27;;;7.10;58.80;;;;;;5094005;28;20081;-75
2021/03/09 16:47:41;;;;;;;29.17;15.25;;;7.10;57.90;;;;;;5094898;28;20032;-75
2021/03/09 16:50:08;;;;;;;24.15;14.35;;;7.20;58.00;;;;;;5094432;28;20605;-75
2021/03/09 16:52:37;;;;;;;31.17;16.05;;;7.10;58.30;;;;;;5093753;28;20103;-76
2021/03/09 16:55:03;;;;;;;33.30;16.85;;;7.10;59.00;;;;;;5094318;28;20095;-75
2021/03/09 16:57:29;;;;;;;31.75;17.90;;;7.10;58.60;;;;;;5093647;28;20476;-75
2021/03/09 16:59:55;;;;;;;39.60;20.60;;;7.00;58.60;;;;;;5094274;28;20021;-75
2021/03/09 17:02:20;;;;;;;29.33;15.50;;;7.10;58.10;;;;;;5092297;28;20024;-76
2021/03/09 17:04:46;;;;;;;40.85;23.25;;;7.20;58.30;;;;;;5093632;28;20028;-76
2021/03/09 17:07:12;;;;;;;32.55;17.42;;;7.20;58.00;;;;;;5092960;28;20024;-75
2021/03/09 17:09:38;;;;;;;30.08;15.63;;;7.20;58.20;;;;;;5094545;28;20024;-75
2021/03/09 17:12:04;;;;;;;27.48;16.88;;;7.30;57.80;;;;;;5079142;28;20023;-76
2021/03/09 17:14:30;;;;;;;37.30;16.20;;;7.20;58.50;;;;;;5084882;28;20077;-75
2021/03/09 17:16:55;;;;;;;33.72;16.48;;;7.30;58.30;;;;;;5095126;28;20031;-75
2021/03/09 17:19:21;;;;;;;27.27;15.32;;;7.20;58.30;;;;;;5093697;28;20054;-73
2021/03/09 17:21:47;;;;;;;36.55;17.35;;;7.30;58.60;;;;;;5093577;28;20114;-75
2021/03/09 17:24:13;;;;;;;34.10;16.27;;;7.30;58.50;;;;;;5093351;28;20111;-74
2021/03/09 17:26:38;;;;;;;33.63;18.35;;;7.20;58.80;;;;;;5078725;28;20035;-74
2021/03/09 17:29:04;;;;;;;28.42;16.88;;;7.10;59.50;;;;;;5093595;28;20032;-74
2021/03/09 17:31:30;;;;;;;31.60;16.90;;;7.00;59.30;;;;;;5092974;28;20091;-74
2021/03/09 17:33:55;;;;;;;41.95;20.42;;;7.00;59.00;;;;;;5096766;22;20052;-73
2021/03/09 17:36:21;;;;;;;34.53;17.40;;;7.10;59.30;;;;;;5073405;28;20024;-73
2021/03/09 17:38:47;;;;;;;35.90;17.75;;;7.10;59.10;;;;;;5072157;28;20032;-73
2021/03/09 17:41:13;;;;;;;30.25;17.88;;;7.00;59.70;;;;;;5073844;28;20154;-73
2021/03/09 17:43:39;;;;;;;33.22;18.05;;;7.10;60.00;;;;;;5077798;28;20099;-73
2021/03/09 17:46:05;;;;;;;42.38;20.95;;;7.00;60.20;;;;;;5080440;28;20142;-73
2021/03/09 17:48:30;;;;;;;33.75;19.17;;;6.80;60.10;;;;;;5092872;28;20107;-73
2021/03/09 17:50:56;;;;;;;42.75;19.83;;;6.70;61.40;;;;;;5092006;28;20024;-73
2021/03/09 17:53:22;;;;;;;36.78;20.33;;;6.70;61.80;;;;;;5092521;28;20030;-73
2021/03/09 17:55:48;;;;;;;36.75;19.50;;;6.70;61.40;;;;;;5092904;28;20413;-73
2021/03/09 17:58:13;;;;;;;38.40;19.40;;;6.50;61.80;;;;;;5092438;28;20032;-73
2021/03/09 18:00:39;;;;;;;29.15;19.15;;;6.70;62.10;;;;;;5093472;28;20119;-73
2021/03/09 18:03:06;;;;;;;41.58;20.52;;;6.70;61.40;;;;;;5093996;28;20086;-73
2021/03/09 18:05:31;;;;;;;41.78;24.08;;;6.80;61.30;;;;;;5093556;28;20024;-73
2021/03/09 18:07:57;;;;;;;45.40;23.27;;;6.60;61.70;;;;;;5093570;28;20487;-73
2021/03/09 18:10:23;;;;;;;41.53;21.77;;;6.40;62.20;;;;;;5093654;28;20461;-73
2021/03/09 18:12:49;;;;;;;34.72;21.25;;;6.30;62.40;;;;;;5093507;28;20020;-73
2021/03/09 18:15:15;;;;;;;36.25;20.75;;;6.40;62.50;;;;;;5094224;28;20028;-73
2021/03/09 18:17:41;;;;;;;35.08;20.73;;;6.60;62.30;;;;;;5113680;28;20026;-73
2021/03/09 18:20:08;;;;;;;36.30;19.33;;;6.60;62.10;;;;;;5109820;28;20036;-73
2021/03/09 18:22:34;;;;;;;34.83;19.90;;;6.70;62.40;;;;;;5105050;28;20380;-73
2021/03/09 18:25:00;;;;;;;34.08;19.58;;;6.60;61.80;;;;;;5063876;28;20025;-73
2021/03/09 18:27:26;;;;;;;36.05;19.60;;;6.60;62.30;;;;;;5073132;28;20013;-73
2021/03/09 18:29:51;;;;;;;31.38;17.90;;;6.50;62.00;;;;;;5070831;28;20035;-73
2021/03/09 18:32:17;;;;;;;33.42;19.45;;;6.30;62.20;;;;;;5092299;28;20032;-73
2021/03/09 18:34:44;;;;;;;38.42;19.55;;;6.30;63.50;;;;;;5092940;28;20384;-73
2021/03/09 18:37:09;;;;;;;34.47;17.65;;;6.40;63.00;;;;;;5096908;28;20016;-73
2021/03/09 18:39:35;;;;;;;40.33;20.85;;;6.60;62.00;;;;;;5113302;28;20037;-73
2021/03/09 18:42:01;;;;;;;40.17;20.92;;;6.70;61.80;;;;;;5113238;28;20076;-73
2021/03/09 18:44:26;;;;;;;41.72;20.55;;;6.70;60.90;;;;;;5113058;28;20086;-73
2021/03/09 18:46:52;;;;;;;42.65;21.85;;;6.70;61.10;;;;;;5113234;28;20031;-73
2021/03/09 18:49:18;;;;;;;47.53;25.88;;;6.80;61.10;;;;;;5112950;28;20540;-73
2021/03/09 18:51:44;;;;;;;40.97;23.17;;;6.70;61.20;;;;;;5085195;28;20437;-73
2021/03/09 18:54:10;;;;;;;40.20;22.02;;;6.80;61.50;;;;;;5068937;28;20016;-73
2021/03/09 18:56:36;;;;;;;35.70;22.30;;;6.70;61.60;;;;;;5072720;28;20487;-73
2021/03/09 18:59:02;;;;;;;40.97;23.67;;;6.80;62.30;;;;;;5072023;28;20333;-73
2021/03/09 19:01:28;;;;;;;44.25;25.50;;;6.80;62.10;;;;;;5071171;28;20036;-73
2021/03/09 19:03:54;;;;;;;41.45;23.83;;;6.70;62.10;;;;;;5076209;28;20046;-73
2021/03/09 19:06:20;;;;;;;30.83;19.92;;;6.60;62.00;;;;;;5092306;28;20352;-73
2021/03/09 19:08:45;;;;;;;36.50;18.60;;;6.00;65.10;;;;;;5089663;28;20519;-73
2021/03/09 19:11:11;;;;;;;30.70;18.52;;;5.60;68.20;;;;;;5090458;28;20024;-73
2021/03/09 19:13:37;;;;;;;37.00;20.83;;;5.20;70.60;;;;;;5092362;28;20036;-73
2021/03/09 19:16:03;;;;;;;27.55;18.08;;;4.80;72.20;;;;;;5092236;28;20039;-73
2021/03/09 19:18:29;;;;;;;36.38;18.60;;;4.70;73.40;;;;;;5092064;28;20028;-73
2021/03/09 19:20:54;;;;;;;33.22;17.73;;;4.90;73.60;;;;;;5092152;28;20023;-73
2021/03/09 19:23:20;;;;;;;30.38;16.88;;;5.10;73.40;;;;;;5092151;28;20024;-73
2021/03/09 19:25:46;;;;;;;36.22;18.58;;;5.00;72.20;;;;;;5092035;28;20032;-73
2021/03/09 19:28:12;;;;;;;29.58;20.20;;;5.10;73.10;;;;;;5096525;28;20068;-73
2021/03/09 19:30:38;;;;;;;38.88;21.27;;;5.20;73.60;;;;;;5094328;28;20080;-73
2021/03/09 19:33:04;;;;;;;41.03;22.85;;;5.10;72.80;;;;;;5112377;28;20055;-73
2021/03/09 19:35:30;;;;;;;36.45;21.13;;;5.10;73.00;;;;;;5094024;28;20066;-73
2021/03/09 19:37:56;;;;;;;34.35;20.42;;;5.00;73.30;;;;;;5112675;28;20028;-73
2021/03/09 19:40:22;;;;;;;26.90;16.98;;;5.00;73.80;;;;;;5112416;28;20039;-73
2021/03/09 19:42:48;;;;;;;31.50;18.00;;;5.00;73.30;;;;;;5112267;28;20424;-73
2021/03/09 19:45:14;;;;;;;31.90;19.60;;;4.90;73.90;;;;;;5093702;28;20020;-73
2021/03/09 19:47:40;;;;;;;36.38;19.70;;;4.90;75.00;;;;;;5093974;28;20032;-73
2021/03/09 19:50:07;;;;;;;38.35;20.08;;;5.00;73.90;;;;;;5112070;28;20501;-73
2021/03/09 19:52:33;;;;;;;42.75;19.60;;;4.90;74.60;;;;;;5112258;28;20084;-73
2021/03/09 19:54:58;;;;;;;30.48;18.30;;;5.00;74.50;;;;;;5094032;28;20027;-73
2021/03/09 19:57:24;;;;;;;36.05;20.98;;;4.80;74.50;;;;;;5093837;28;20030;-73
2021/03/09 19:59:50;;;;;;;42.72;20.67;;;4.50;76.20;;;;;;5112139;28;20032;-73
2021/03/09 20:02:18;;;;;;;34.97;21.38;;;4.90;76.60;;;;;;5112046;28;20031;-73
2021/03/09 20:04:44;;;;;;;38.03;20.48;;;4.90;75.10;;;;;;5111914;28;20112;-73
2021/03/09 20:07:10;;;;;;;31.05;21.00;;;4.70;75.20;;;;;;5112083;28;20055;-73
2021/03/09 20:09:36;;;;;;;41.20;23.52;;;4.80;76.10;;;;;;5093887;28;20092;-73
2021/03/09 20:12:01;;;;;;;36.42;21.25;;;4.80;76.20;;;;;;5112088;28;20471;-73
2021/03/09 20:14:27;;;;;;;32.72;21.05;;;4.50;76.70;;;;;;5093859;28;20556;-73
2021/03/09 20:16:53;;;;;;;38.92;23.42;;;4.30;77.70;;;;;;5111961;28;20046;-73
2021/03/09 20:19:22;;;;;;;36.92;22.48;;;4.40;79.20;;;;;;5111789;28;20023;-73
2021/03/09 20:21:49;;;;;;;40.92;23.10;;;4.40;78.40;;;;;;5111988;28;20076;-73
2021/03/09 20:24:15;;;;;;;34.92;21.58;;;4.20;79.90;;;;;;5111968;28;20031;-73